sensor_id;sensor_type;location;lat;lon;timestamp;pressure;altitude;pressure_sealevel;temperature;humidity
56402;BME280;42299;35.160;26.100;2022-07-31T00:01:12;100505.47;;;23.91;61.41
56402;BME280;42299;35.160;26.100;2022-07-31T00:02:35;100508.91;;;23.95;61.26
56402;BME280;42299;35.160;26.100;2022-07-31T00:03:57;100502.03;;;23.88;61.40
56402;BME280;42299;35.160;26.100;2022-07-31T00:05:19;100504.19;;;23.79;61.36
56402;BME280;42299;35.160;26.100;2022-07-31T00:06:41;100501.34;;;23.62;61.88
56402;BME280;42299;35.160;26.100;2022-07-31T00:08:05;100501.41;;;23.37;62.31
56402;BME280;42299;35.160;26.100;2022-07-31T00:09:28;100502.06;;;23.22;62.79
56402;BME280;42299;35.160;26.100;2022-07-31T00:10:50;100493.13;;;23.22;62.88
56402;BME280;42299;35.160;26.100;2022-07-31T00:12:13;100500.88;;;23.29;62.68
56402;BME280;42299;35.160;26.100;2022-07-31T00:13:35;100495.28;;;23.34;62.50
56402;BME280;42299;35.160;26.100;2022-07-31T00:14:57;100495.56;;;23.28;62.35
56402;BME280;42299;35.160;26.100;2022-07-31T00:16:20;100498.31;;;23.26;62.43
56402;BME280;42299;35.160;26.100;2022-07-31T00:17:42;100495.34;;;23.32;62.35
56402;BME280;42299;35.160;26.100;2022-07-31T00:19:05;100491.03;;;23.28;62.18
56402;BME280;42299;35.160;26.100;2022-07-31T00:20:26;100496.16;;;23.13;62.35
56402;BME280;42299;35.160;26.100;2022-07-31T00:21:48;100506.69;;;22.97;62.83
56402;BME280;42299;35.160;26.100;2022-07-31T00:23:12;100497.34;;;22.84;63.31
56402;BME280;42299;35.160;26.100;2022-07-31T00:24:33;100499.41;;;22.77;63.48
56402;BME280;42299;35.160;26.100;2022-07-31T00:25:56;100500.44;;;22.73;63.43
56402;BME280;42299;35.160;26.100;2022-07-31T00:27:19;100501.31;;;22.72;63.61
56402;BME280;42299;35.160;26.100;2022-07-31T00:28:41;100507.47;;;22.77;63.55
56402;BME280;42299;35.160;26.100;2022-07-31T00:30:05;100500.38;;;22.75;63.42
56402;BME280;42299;35.160;26.100;2022-07-31T00:31:27;100498.19;;;22.61;63.55
56402;BME280;42299;35.160;26.100;2022-07-31T00:32:50;100508.34;;;22.53;63.91
56402;BME280;42299;35.160;26.100;2022-07-31T00:34:13;100503.25;;;22.45;63.88
56402;BME280;42299;35.160;26.100;2022-07-31T00:35:35;100500.91;;;22.36;64.05
56402;BME280;42299;35.160;26.100;2022-07-31T00:36:58;100497.34;;;22.36;64.18
56402;BME280;42299;35.160;26.100;2022-07-31T00:38:21;100510.66;;;22.39;64.14
56402;BME280;42299;35.160;26.100;2022-07-31T00:39:44;100507.88;;;22.42;63.94
56402;BME280;42299;35.160;26.100;2022-07-31T00:41:07;100506.94;;;22.43;63.99
56402;BME280;42299;35.160;26.100;2022-07-31T00:42:29;100498.69;;;22.47;63.69
56402;BME280;42299;35.160;26.100;2022-07-31T00:43:52;100505.78;;;22.50;63.66
56402;BME280;42299;35.160;26.100;2022-07-31T00:45:14;100509.28;;;22.52;63.55
56402;BME280;42299;35.160;26.100;2022-07-31T00:46:37;100509.19;;;22.55;63.37
56402;BME280;42299;35.160;26.100;2022-07-31T00:48:00;100508.53;;;22.48;63.45
56402;BME280;42299;35.160;26.100;2022-07-31T00:49:23;100509.88;;;22.37;63.76
56402;BME280;42299;35.160;26.100;2022-07-31T00:50:47;100498.19;;;22.38;64.07
56402;BME280;42299;35.160;26.100;2022-07-31T00:52:08;100496.13;;;22.44;63.96
56402;BME280;42299;35.160;26.100;2022-07-31T00:53:33;100487.94;;;22.47;63.58
56402;BME280;42299;35.160;26.100;2022-07-31T00:54:55;100491.00;;;22.38;63.69
56402;BME280;42299;35.160;26.100;2022-07-31T00:56:17;100495.81;;;22.29;63.94
56402;BME280;42299;35.160;26.100;2022-07-31T00:57:40;100487.56;;;22.33;64.11
56402;BME280;42299;35.160;26.100;2022-07-31T00:59:03;100488.88;;;22.46;63.84
56402;BME280;42299;35.160;26.100;2022-07-31T01:00:26;100491.63;;;22.45;63.49
56402;BME280;42299;35.160;26.100;2022-07-31T01:01:48;100483.53;;;22.21;63.77
56402;BME280;42299;35.160;26.100;2022-07-31T01:03:10;100492.91;;;22.10;64.10
56402;BME280;42299;35.160;26.100;2022-07-31T01:04:32;100480.59;;;22.04;64.28
56402;BME280;42299;35.160;26.100;2022-07-31T01:05:54;100488.75;;;22.01;64.27
56402;BME280;42299;35.160;26.100;2022-07-31T01:07:16;100489.78;;;21.97;64.46
56402;BME280;42299;35.160;26.100;2022-07-31T01:08:39;100491.38;;;22.03;64.43
56402;BME280;42299;35.160;26.100;2022-07-31T01:10:05;100480.34;;;22.10;64.31
56402;BME280;42299;35.160;26.100;2022-07-31T01:11:40;100482.25;;;22.07;64.12
56402;BME280;42299;35.160;26.100;2022-07-31T01:13:06;100477.28;;;21.96;64.27
56402;BME280;42299;35.160;26.100;2022-07-31T01:14:31;100482.81;;;21.92;64.27
56402;BME280;42299;35.160;26.100;2022-07-31T01:15:55;100474.97;;;21.85;64.38
56402;BME280;42299;35.160;26.100;2022-07-31T01:17:21;100478.44;;;21.87;64.34
56402;BME280;42299;35.160;26.100;2022-07-31T01:18:45;100486.06;;;22.01;64.08
56402;BME280;42299;35.160;26.100;2022-07-31T01:20:10;100476.78;;;22.10;63.88
56402;BME280;42299;35.160;26.100;2022-07-31T01:21:35;100471.25;;;22.14;63.65
56402;BME280;42299;35.160;26.100;2022-07-31T01:23:16;100479.44;;;22.11;63.44
56402;BME280;42299;35.160;26.100;2022-07-31T01:25:30;100475.31;;;22.01;63.53
56402;BME280;42299;35.160;26.100;2022-07-31T01:27:14;100488.69;;;22.03;63.66
56402;BME280;42299;35.160;26.100;2022-07-31T01:28:59;100487.50;;;22.11;63.53
56402;BME280;42299;35.160;26.100;2022-07-31T01:30:28;100480.22;;;22.13;63.33
56402;BME280;42299;35.160;26.100;2022-07-31T01:31:58;100490.06;;;22.14;63.16
56402;BME280;42299;35.160;26.100;2022-07-31T01:33:26;100484.84;;;22.10;63.19
56402;BME280;42299;35.160;26.100;2022-07-31T01:34:54;100483.28;;;22.04;63.40
56402;BME280;42299;35.160;26.100;2022-07-31T01:36:21;100479.66;;;22.05;63.46
56402;BME280;42299;35.160;26.100;2022-07-31T01:37:46;100486.50;;;22.14;63.38
56402;BME280;42299;35.160;26.100;2022-07-31T01:39:11;100482.88;;;22.15;63.21
56402;BME280;42299;35.160;26.100;2022-07-31T01:40:36;100487.31;;;22.16;63.16
56402;BME280;42299;35.160;26.100;2022-07-31T01:42:03;100486.66;;;22.09;63.13
56402;BME280;42299;35.160;26.100;2022-07-31T01:43:31;100486.66;;;22.09;63.35
56402;BME280;42299;35.160;26.100;2022-07-31T01:44:57;100484.63;;;22.16;63.39
56402;BME280;42299;35.160;26.100;2022-07-31T01:46:22;100483.47;;;22.23;63.39
56402;BME280;42299;35.160;26.100;2022-07-31T01:47:46;100477.88;;;22.29;63.08
56402;BME280;42299;35.160;26.100;2022-07-31T01:49:10;100486.59;;;22.36;62.96
56402;BME280;42299;35.160;26.100;2022-07-31T01:50:34;100477.53;;;22.38;62.75
56402;BME280;42299;35.160;26.100;2022-07-31T01:51:58;100483.84;;;22.37;62.73
56402;BME280;42299;35.160;26.100;2022-07-31T01:53:23;100482.09;;;22.36;62.60
56402;BME280;42299;35.160;26.100;2022-07-31T01:54:46;100479.69;;;22.29;62.61
56402;BME280;42299;35.160;26.100;2022-07-31T01:56:11;100482.47;;;22.25;63.00
56402;BME280;42299;35.160;26.100;2022-07-31T01:57:37;100477.97;;;22.26;63.14
56402;BME280;42299;35.160;26.100;2022-07-31T01:59:01;100474.25;;;22.30;63.05
56402;BME280;42299;35.160;26.100;2022-07-31T02:00:33;100471.50;;;22.32;63.14
56402;BME280;42299;35.160;26.100;2022-07-31T02:01:57;100468.50;;;22.16;63.17
56402;BME280;42299;35.160;26.100;2022-07-31T02:03:22;100466.47;;;21.98;63.31
56402;BME280;42299;35.160;26.100;2022-07-31T02:04:46;100472.84;;;21.94;63.39
56402;BME280;42299;35.160;26.100;2022-07-31T02:06:10;100468.78;;;21.82;63.26
56402;BME280;42299;35.160;26.100;2022-07-31T02:07:32;100465.41;;;21.77;63.36
56402;BME280;42299;35.160;26.100;2022-07-31T02:08:57;100464.38;;;21.79;63.29
56402;BME280;42299;35.160;26.100;2022-07-31T02:10:21;100467.03;;;21.81;63.04
56402;BME280;42299;35.160;26.100;2022-07-31T02:11:44;100465.13;;;21.84;62.85
56402;BME280;42299;35.160;26.100;2022-07-31T02:13:07;100468.56;;;21.88;62.71
56402;BME280;42299;35.160;26.100;2022-07-31T02:14:30;100467.69;;;21.87;62.68
56402;BME280;42299;35.160;26.100;2022-07-31T02:15:55;100466.59;;;21.93;62.46
56402;BME280;42299;35.160;26.100;2022-07-31T02:17:18;100462.91;;;21.97;62.23
56402;BME280;42299;35.160;26.100;2022-07-31T02:19:11;100458.69;;;21.88;62.16
56402;BME280;42299;35.160;26.100;2022-07-31T02:20:37;100462.53;;;21.81;62.08
56402;BME280;42299;35.160;26.100;2022-07-31T02:21:58;100461.84;;;21.76;62.08
56402;BME280;42299;35.160;26.100;2022-07-31T02:23:21;100451.91;;;21.78;62.05
56402;BME280;42299;35.160;26.100;2022-07-31T02:24:42;100460.72;;;21.82;61.87
56402;BME280;42299;35.160;26.100;2022-07-31T02:26:06;100463.31;;;21.85;61.60
56402;BME280;42299;35.160;26.100;2022-07-31T02:27:29;100472.94;;;21.92;61.47
56402;BME280;42299;35.160;26.100;2022-07-31T02:28:52;100469.22;;;21.95;61.63
56402;BME280;42299;35.160;26.100;2022-07-31T02:30:15;100462.91;;;21.97;61.88
56402;BME280;42299;35.160;26.100;2022-07-31T02:31:41;100466.31;;;22.02;61.93
56402;BME280;42299;35.160;26.100;2022-07-31T02:33:07;100467.19;;;22.03;62.00
56402;BME280;42299;35.160;26.100;2022-07-31T02:34:33;100458.25;;;22.02;62.10
56402;BME280;42299;35.160;26.100;2022-07-31T02:35:57;100463.63;;;22.02;61.99
56402;BME280;42299;35.160;26.100;2022-07-31T02:37:21;100463.56;;;22.04;61.87
56402;BME280;42299;35.160;26.100;2022-07-31T02:38:44;100462.69;;;22.03;61.74
56402;BME280;42299;35.160;26.100;2022-07-31T02:40:07;100465.47;;;22.00;61.69
56402;BME280;42299;35.160;26.100;2022-07-31T02:41:30;100471.03;;;21.94;61.83
56402;BME280;42299;35.160;26.100;2022-07-31T02:42:53;100453.72;;;21.78;61.76
56402;BME280;42299;35.160;26.100;2022-07-31T02:44:16;100462.13;;;21.67;62.04
56402;BME280;42299;35.160;26.100;2022-07-31T02:45:40;100454.41;;;21.58;62.14
56402;BME280;42299;35.160;26.100;2022-07-31T02:47:05;100461.56;;;21.59;62.14
56402;BME280;42299;35.160;26.100;2022-07-31T02:48:28;100459.53;;;21.66;61.93
56402;BME280;42299;35.160;26.100;2022-07-31T02:49:56;100462.09;;;21.69;61.94
56402;BME280;42299;35.160;26.100;2022-07-31T02:51:18;100465.56;;;21.72;61.79
56402;BME280;42299;35.160;26.100;2022-07-31T02:52:44;100456.41;;;21.78;61.77
56402;BME280;42299;35.160;26.100;2022-07-31T02:54:06;100459.03;;;21.79;61.63
56402;BME280;42299;35.160;26.100;2022-07-31T02:55:29;100463.59;;;21.77;61.64
56402;BME280;42299;35.160;26.100;2022-07-31T02:56:51;100467.28;;;21.73;61.74
56402;BME280;42299;35.160;26.100;2022-07-31T02:58:14;100457.56;;;21.71;61.57
56402;BME280;42299;35.160;26.100;2022-07-31T02:59:41;100449.50;;;21.71;61.60
56402;BME280;42299;35.160;26.100;2022-07-31T03:01:05;100453.88;;;21.73;61.57
56402;BME280;42299;35.160;26.100;2022-07-31T03:02:31;100456.53;;;21.73;61.57
56402;BME280;42299;35.160;26.100;2022-07-31T03:03:54;100454.88;;;21.71;61.32
56402;BME280;42299;35.160;26.100;2022-07-31T03:05:17;100444.25;;;21.66;61.22
56402;BME280;42299;35.160;26.100;2022-07-31T03:06:38;100453.66;;;21.53;61.05
56402;BME280;42299;35.160;26.100;2022-07-31T03:08:00;100447.75;;;21.43;61.20
56402;BME280;42299;35.160;26.100;2022-07-31T03:09:23;100449.84;;;21.34;60.99
56402;BME280;42299;35.160;26.100;2022-07-31T03:10:57;100453.88;;;21.21;61.22
56402;BME280;42299;35.160;26.100;2022-07-31T03:12:20;100447.78;;;21.14;61.15
56402;BME280;42299;35.160;26.100;2022-07-31T03:13:46;100440.78;;;21.10;61.30
56402;BME280;42299;35.160;26.100;2022-07-31T03:15:11;100451.19;;;21.21;61.12
56402;BME280;42299;35.160;26.100;2022-07-31T03:16:33;100453.59;;;21.30;60.73
56402;BME280;42299;35.160;26.100;2022-07-31T03:17:58;100456.03;;;21.37;60.58
56402;BME280;42299;35.160;26.100;2022-07-31T03:19:33;100460.34;;;21.41;60.57
56402;BME280;42299;35.160;26.100;2022-07-31T03:20:56;100449.50;;;21.44;60.52
56402;BME280;42299;35.160;26.100;2022-07-31T03:22:18;100461.94;;;21.47;60.59
56402;BME280;42299;35.160;26.100;2022-07-31T03:23:44;100455.69;;;21.46;60.59
56402;BME280;42299;35.160;26.100;2022-07-31T03:25:13;100461.06;;;21.46;60.65
56402;BME280;42299;35.160;26.100;2022-07-31T03:26:35;100460.25;;;21.44;60.78
56402;BME280;42299;35.160;26.100;2022-07-31T03:27:58;100459.25;;;21.47;60.62
56402;BME280;42299;35.160;26.100;2022-07-31T03:29:20;100459.22;;;21.48;60.56
56402;BME280;42299;35.160;26.100;2022-07-31T03:30:44;100458.34;;;21.48;60.56
56402;BME280;42299;35.160;26.100;2022-07-31T03:32:06;100448.59;;;21.45;60.26
56402;BME280;42299;35.160;26.100;2022-07-31T03:33:31;100456.78;;;21.41;60.13
56402;BME280;42299;35.160;26.100;2022-07-31T03:34:53;100452.50;;;21.35;60.19
56402;BME280;42299;35.160;26.100;2022-07-31T03:36:15;100458.59;;;21.40;60.29
56402;BME280;42299;35.160;26.100;2022-07-31T03:37:38;100457.44;;;21.47;60.12
56402;BME280;42299;35.160;26.100;2022-07-31T03:39:01;100457.25;;;21.54;59.80
56402;BME280;42299;35.160;26.100;2022-07-31T03:40:34;100458.91;;;21.58;59.71
56402;BME280;42299;35.160;26.100;2022-07-31T03:41:57;100454.25;;;21.63;59.57
56402;BME280;42299;35.160;26.100;2022-07-31T03:43:21;100452.31;;;21.66;59.43
56402;BME280;42299;35.160;26.100;2022-07-31T03:44:44;100455.63;;;21.74;59.24
56402;BME280;42299;35.160;26.100;2022-07-31T03:46:08;100444.56;;;21.83;59.13
56402;BME280;42299;35.160;26.100;2022-07-31T03:47:30;100455.78;;;21.96;58.95
56402;BME280;42299;35.160;26.100;2022-07-31T03:48:53;100455.47;;;22.05;58.91
56402;BME280;42299;35.160;26.100;2022-07-31T03:50:19;100457.84;;;22.13;59.13
56402;BME280;42299;35.160;26.100;2022-07-31T03:51:40;100452.13;;;22.22;59.07
56402;BME280;42299;35.160;26.100;2022-07-31T03:53:03;100448.03;;;22.35;58.98
56402;BME280;42299;35.160;26.100;2022-07-31T03:54:28;100444.84;;;22.49;58.76
56402;BME280;42299;35.160;26.100;2022-07-31T03:56:01;100447.00;;;22.62;58.56
56402;BME280;42299;35.160;26.100;2022-07-31T03:57:27;100453.78;;;22.73;58.14
56402;BME280;42299;35.160;26.100;2022-07-31T03:58:51;100443.56;;;22.82;58.00
56402;BME280;42299;35.160;26.100;2022-07-31T04:00:15;100456.31;;;22.99;57.54
56402;BME280;42299;35.160;26.100;2022-07-31T04:01:40;100447.69;;;23.13;57.19
56402;BME280;42299;35.160;26.100;2022-07-31T04:03:10;100455.97;;;23.30;56.59
56402;BME280;42299;35.160;26.100;2022-07-31T04:04:46;100441.88;;;23.43;56.23
56402;BME280;42299;35.160;26.100;2022-07-31T04:06:08;100444.84;;;23.59;56.02
56402;BME280;42299;35.160;26.100;2022-07-31T04:07:31;100446.88;;;23.74;55.88
56402;BME280;42299;35.160;26.100;2022-07-31T04:08:53;100442.84;;;23.84;55.60
56402;BME280;42299;35.160;26.100;2022-07-31T04:10:16;100439.69;;;23.95;55.83
56402;BME280;42299;35.160;26.100;2022-07-31T04:11:38;100443.63;;;24.07;55.68
56402;BME280;42299;35.160;26.100;2022-07-31T04:13:00;100450.25;;;24.20;55.38
56402;BME280;42299;35.160;26.100;2022-07-31T04:14:23;100450.56;;;24.33;55.42
56402;BME280;42299;35.160;26.100;2022-07-31T04:15:45;100454.53;;;24.44;55.32
56402;BME280;42299;35.160;26.100;2022-07-31T04:17:08;100446.72;;;24.57;54.95
56402;BME280;42299;35.160;26.100;2022-07-31T04:18:29;100440.03;;;24.66;54.24
56402;BME280;42299;35.160;26.100;2022-07-31T04:19:54;100449.34;;;24.77;54.43
56402;BME280;42299;35.160;26.100;2022-07-31T04:21:16;100446.91;;;24.91;54.48
56402;BME280;42299;35.160;26.100;2022-07-31T04:22:39;100441.53;;;25.09;54.21
56402;BME280;42299;35.160;26.100;2022-07-31T04:24:09;100438.78;;;25.27;54.35
56402;BME280;42299;35.160;26.100;2022-07-31T04:25:57;100442.19;;;25.50;53.61
56402;BME280;42299;35.160;26.100;2022-07-31T04:27:27;100439.50;;;25.67;53.44
56402;BME280;42299;35.160;26.100;2022-07-31T04:28:49;100436.00;;;25.82;52.77
56402;BME280;42299;35.160;26.100;2022-07-31T04:30:12;100440.63;;;25.97;52.23
56402;BME280;42299;35.160;26.100;2022-07-31T04:31:35;100445.03;;;26.15;52.25
56402;BME280;42299;35.160;26.100;2022-07-31T04:33:01;100436.91;;;26.33;51.66
56402;BME280;42299;35.160;26.100;2022-07-31T04:34:24;100434.16;;;26.50;51.25
56402;BME280;42299;35.160;26.100;2022-07-31T04:35:48;100440.09;;;26.72;50.99
56402;BME280;42299;35.160;26.100;2022-07-31T04:37:10;100443.66;;;26.90;50.91
56402;BME280;42299;35.160;26.100;2022-07-31T04:38:33;100441.13;;;27.03;50.30
56402;BME280;42299;35.160;26.100;2022-07-31T04:39:55;100442.59;;;27.08;50.16
56402;BME280;42299;35.160;26.100;2022-07-31T04:41:18;100442.31;;;27.13;50.04
56402;BME280;42299;35.160;26.100;2022-07-31T04:42:41;100446.94;;;27.26;49.88
56402;BME280;42299;35.160;26.100;2022-07-31T04:44:03;100447.88;;;27.41;49.30
56402;BME280;42299;35.160;26.100;2022-07-31T04:45:39;100442.47;;;27.57;48.97
56402;BME280;42299;35.160;26.100;2022-07-31T04:47:04;100437.69;;;27.76;48.82
56402;BME280;42299;35.160;26.100;2022-07-31T04:48:29;100442.47;;;28.01;48.77
56402;BME280;42299;35.160;26.100;2022-07-31T04:49:52;100434.75;;;28.23;48.64
56402;BME280;42299;35.160;26.100;2022-07-31T04:51:17;100430.50;;;28.47;48.02
56402;BME280;42299;35.160;26.100;2022-07-31T04:52:40;100434.94;;;28.63;47.66
56402;BME280;42299;35.160;26.100;2022-07-31T04:54:05;100432.41;;;28.74;47.58
56402;BME280;42299;35.160;26.100;2022-07-31T04:55:28;100426.31;;;28.84;47.58
56402;BME280;42299;35.160;26.100;2022-07-31T04:56:50;100419.56;;;29.04;47.67
56402;BME280;42299;35.160;26.100;2022-07-31T04:58:12;100426.84;;;29.30;47.51
56402;BME280;42299;35.160;26.100;2022-07-31T04:59:35;100419.56;;;29.58;46.94
56402;BME280;42299;35.160;26.100;2022-07-31T05:00:56;100419.59;;;29.70;46.32
56402;BME280;42299;35.160;26.100;2022-07-31T05:02:19;100416.09;;;29.81;45.83
56402;BME280;42299;35.160;26.100;2022-07-31T05:03:41;100423.13;;;29.98;45.43
56402;BME280;42299;35.160;26.100;2022-07-31T05:05:04;100426.06;;;30.20;45.52
56402;BME280;42299;35.160;26.100;2022-07-31T05:06:34;100427.63;;;30.49;44.83
56402;BME280;42299;35.160;26.100;2022-07-31T05:07:56;100425.19;;;30.70;44.67
56402;BME280;42299;35.160;26.100;2022-07-31T05:09:27;100424.88;;;30.99;44.74
56402;BME280;42299;35.160;26.100;2022-07-31T05:10:55;100418.13;;;31.28;44.22
56402;BME280;42299;35.160;26.100;2022-07-31T05:12:35;100423.09;;;31.58;43.42
56402;BME280;42299;35.160;26.100;2022-07-31T05:13:59;100427.44;;;31.84;43.25
56402;BME280;42299;35.160;26.100;2022-07-31T05:15:21;100426.25;;;32.11;42.64
56402;BME280;42299;35.160;26.100;2022-07-31T05:16:43;100433.03;;;32.29;42.01
56402;BME280;42299;35.160;26.100;2022-07-31T05:18:05;100425.69;;;32.40;42.22
56402;BME280;42299;35.160;26.100;2022-07-31T05:19:46;100428.19;;;32.66;41.64
56402;BME280;42299;35.160;26.100;2022-07-31T05:21:15;100419.97;;;32.77;41.09
56402;BME280;42299;35.160;26.100;2022-07-31T05:23:15;100422.41;;;33.02;40.96
56402;BME280;42299;35.160;26.100;2022-07-31T05:24:50;100429.84;;;33.34;40.74
56402;BME280;42299;35.160;26.100;2022-07-31T05:26:13;100425.75;;;33.60;40.46
56402;BME280;42299;35.160;26.100;2022-07-31T05:27:36;100428.28;;;33.84;40.05
56402;BME280;42299;35.160;26.100;2022-07-31T05:28:59;100427.88;;;34.09;39.71
56402;BME280;42299;35.160;26.100;2022-07-31T05:30:23;100427.75;;;34.31;38.94
56402;BME280;42299;35.160;26.100;2022-07-31T05:31:45;100424.97;;;34.52;38.13
56402;BME280;42299;35.160;26.100;2022-07-31T05:33:07;100428.38;;;34.75;37.61
56402;BME280;42299;35.160;26.100;2022-07-31T05:34:29;100422.09;;;34.94;36.91
56402;BME280;42299;35.160;26.100;2022-07-31T05:35:52;100425.44;;;35.07;36.42
56402;BME280;42299;35.160;26.100;2022-07-31T05:37:13;100429.09;;;35.17;35.70
56402;BME280;42299;35.160;26.100;2022-07-31T05:38:37;100430.84;;;35.28;35.02
56402;BME280;42299;35.160;26.100;2022-07-31T05:40:29;100427.84;;;35.40;35.25
56402;BME280;42299;35.160;26.100;2022-07-31T05:42:27;100433.34;;;35.50;35.30
56402;BME280;42299;35.160;26.100;2022-07-31T05:44:17;100423.38;;;35.49;35.66
56402;BME280;42299;35.160;26.100;2022-07-31T05:45:41;100429.16;;;35.55;35.66
56402;BME280;42299;35.160;26.100;2022-07-31T05:47:05;100417.56;;;35.62;35.49
56402;BME280;42299;35.160;26.100;2022-07-31T05:48:29;100420.94;;;35.75;35.45
56402;BME280;42299;35.160;26.100;2022-07-31T05:49:50;100423.38;;;35.87;35.11
56402;BME280;42299;35.160;26.100;2022-07-31T05:51:13;100426.53;;;36.02;34.94
56402;BME280;42299;35.160;26.100;2022-07-31T05:52:36;100422.47;;;36.06;34.73
56402;BME280;42299;35.160;26.100;2022-07-31T05:54:18;100428.09;;;36.14;34.79
56402;BME280;42299;35.160;26.100;2022-07-31T05:55:59;100419.28;;;36.20;34.85
56402;BME280;42299;35.160;26.100;2022-07-31T05:57:35;100409.63;;;36.44;34.53
56402;BME280;42299;35.160;26.100;2022-07-31T05:58:58;100415.06;;;36.63;34.49
56402;BME280;42299;35.160;26.100;2022-07-31T06:00:21;100421.69;;;36.80;33.89
56402;BME280;42299;35.160;26.100;2022-07-31T06:01:43;100413.78;;;36.94;33.30
56402;BME280;42299;35.160;26.100;2022-07-31T06:03:05;100410.09;;;37.03;32.86
56402;BME280;42299;35.160;26.100;2022-07-31T06:04:51;100406.13;;;37.16;32.64
56402;BME280;42299;35.160;26.100;2022-07-31T06:06:17;100397.06;;;37.23;32.25
56402;BME280;42299;35.160;26.100;2022-07-31T06:07:39;100406.28;;;37.32;31.88
56402;BME280;42299;35.160;26.100;2022-07-31T06:09:01;100398.13;;;37.40;31.76
56402;BME280;42299;35.160;26.100;2022-07-31T06:10:27;100397.38;;;37.56;31.28
56402;BME280;42299;35.160;26.100;2022-07-31T06:11:49;100403.22;;;37.53;30.96
56402;BME280;42299;35.160;26.100;2022-07-31T06:13:12;100396.50;;;37.55;30.70
56402;BME280;42299;35.160;26.100;2022-07-31T06:14:34;100391.97;;;37.64;30.37
56402;BME280;42299;35.160;26.100;2022-07-31T06:16:11;100388.81;;;37.76;29.93
56402;BME280;42299;35.160;26.100;2022-07-31T06:17:37;100392.88;;;37.90;29.70
56402;BME280;42299;35.160;26.100;2022-07-31T06:18:58;100392.81;;;37.82;29.54
56402;BME280;42299;35.160;26.100;2022-07-31T06:20:21;100390.47;;;37.69;28.88
56402;BME280;42299;35.160;26.100;2022-07-31T06:21:44;100388.59;;;37.70;29.24
56402;BME280;42299;35.160;26.100;2022-07-31T06:23:07;100392.94;;;37.72;29.13
56402;BME280;42299;35.160;26.100;2022-07-31T06:24:30;100393.22;;;37.51;29.51
56402;BME280;42299;35.160;26.100;2022-07-31T06:25:54;100409.53;;;37.45;29.46
56402;BME280;42299;35.160;26.100;2022-07-31T06:27:17;100390.72;;;37.40;29.29
56402;BME280;42299;35.160;26.100;2022-07-31T06:28:39;100399.03;;;37.48;29.30
56402;BME280;42299;35.160;26.100;2022-07-31T06:30:02;100393.75;;;37.55;28.78
56402;BME280;42299;35.160;26.100;2022-07-31T06:31:25;100391.88;;;37.56;28.46
56402;BME280;42299;35.160;26.100;2022-07-31T06:32:50;100401.34;;;37.53;28.71
56402;BME280;42299;35.160;26.100;2022-07-31T06:34:13;100397.88;;;37.51;29.14
56402;BME280;42299;35.160;26.100;2022-07-31T06:35:37;100394.34;;;37.59;29.17
56402;BME280;42299;35.160;26.100;2022-07-31T06:37:20;100404.97;;;37.71;29.30
56402;BME280;42299;35.160;26.100;2022-07-31T06:38:43;100392.13;;;37.80;29.18
56402;BME280;42299;35.160;26.100;2022-07-31T06:40:34;100393.25;;;37.95;28.83
56402;BME280;42299;35.160;26.100;2022-07-31T06:42:27;100386.66;;;38.06;28.16
56402;BME280;42299;35.160;26.100;2022-07-31T06:43:58;100387.84;;;38.03;27.90
56402;BME280;42299;35.160;26.100;2022-07-31T06:45:40;100395.88;;;37.97;27.84
56402;BME280;42299;35.160;26.100;2022-07-31T06:47:24;100391.63;;;37.84;27.97
56402;BME280;42299;35.160;26.100;2022-07-31T06:48:55;100391.94;;;37.81;27.87
56402;BME280;42299;35.160;26.100;2022-07-31T06:50:18;100389.75;;;37.85;27.60
56402;BME280;42299;35.160;26.100;2022-07-31T06:51:52;100397.16;;;37.84;27.45
56402;BME280;42299;35.160;26.100;2022-07-31T06:53:14;100391.72;;;37.75;27.44
56402;BME280;42299;35.160;26.100;2022-07-31T06:54:36;100390.03;;;37.74;27.45
56402;BME280;42299;35.160;26.100;2022-07-31T06:55:58;100396.41;;;37.74;27.59
56402;BME280;42299;35.160;26.100;2022-07-31T06:57:20;100393.41;;;37.68;27.94
56402;BME280;42299;35.160;26.100;2022-07-31T06:58:43;100391.34;;;37.70;27.73
56402;BME280;42299;35.160;26.100;2022-07-31T07:00:07;100388.81;;;37.76;27.88
56402;BME280;42299;35.160;26.100;2022-07-31T07:01:30;100391.50;;;37.86;27.75
56402;BME280;42299;35.160;26.100;2022-07-31T07:02:51;100393.03;;;37.88;27.54
56402;BME280;42299;35.160;26.100;2022-07-31T07:04:15;100395.97;;;37.87;27.51
56402;BME280;42299;35.160;26.100;2022-07-31T07:05:38;100391.94;;;37.81;27.47
56402;BME280;42299;35.160;26.100;2022-07-31T07:07:00;100386.69;;;37.70;27.67
56402;BME280;42299;35.160;26.100;2022-07-31T07:08:23;100392.75;;;37.56;27.86
56402;BME280;42299;35.160;26.100;2022-07-31T07:09:45;100387.97;;;37.58;28.01
56402;BME280;42299;35.160;26.100;2022-07-31T07:11:12;100383.88;;;37.62;27.80
56402;BME280;42299;35.160;26.100;2022-07-31T07:12:35;100386.69;;;37.70;27.76
56402;BME280;42299;35.160;26.100;2022-07-31T07:13:58;100392.81;;;37.82;27.54
56402;BME280;42299;35.160;26.100;2022-07-31T07:15:21;100385.47;;;37.90;27.56
56402;BME280;42299;35.160;26.100;2022-07-31T07:16:44;100384.84;;;37.97;27.47
56402;BME280;42299;35.160;26.100;2022-07-31T07:18:06;100381.75;;;38.00;27.23
56402;BME280;42299;35.160;26.100;2022-07-31T07:19:44;100379.88;;;38.00;27.63
56402;BME280;42299;35.160;26.100;2022-07-31T07:21:07;100391.06;;;37.99;27.74
56402;BME280;42299;35.160;26.100;2022-07-31T07:22:28;100387.59;;;37.97;27.58